Time;durP1;ratioP1;P1;durP2;ratioP2;P2;SDS_P1;SDS_P2;PMS_P1;PMS_P2;Temp;Humidity;BMP_temperature;BMP_pressure;BME280_temperature;BME280_humidity;BME280_pressure;Samples;Min_cycle;Max_cycle;Signal;HPM_P1;HPM_P2
2022/12/11 00:03:18;;;;;;;33.10;21.17;;;;;;;5.16;57.08;98147.78;7014620;28;20693;-82
2022/12/11 00:10:59;;;;;;;30.90;21.13;;;;;;;5.09;57.42;98165.59;6983629;28;20215;-82
2022/12/11 00:22:23;;;;;;;;;;;;;;;;;;;;;
2022/12/11 00:34:13;;;;;;;31.40;21.23;;;;;;;5.16;56.63;98142.44;6998239;28;20207;-82
2022/12/11 00:38:17;;;;;;;32.93;20.50;;;;;;;5.29;56.60;98152.44;7015405;28;20213;-81
2022/12/11 00:42:00;;;;;;;30.37;19.77;;;;;;;5.30;56.53;98138.09;7009878;28;20245;-82
2022/12/11 00:45:22;;;;;;;27.27;19.17;;;;;;;5.34;56.20;98139.34;7013351;28;20219;-82
2022/12/11 00:48:45;;;;;;;27.00;19.57;;;;;;;5.42;55.42;98128.56;7015317;28;20694;-82
2022/12/11 00:52:09;;;;;;;25.97;17.93;;;;;;;5.03;55.58;98069.31;7015911;28;20214;-84
2022/12/11 00:55:47;;;;;;;24.37;17.77;;;;;;;4.61;56.05;98075.38;7014242;28;20256;-84
2022/12/11 01:06:47;;;;;;;25.50;17.50;;;;;;;5.25;55.74;98148.50;6985432;28;20206;-83
2022/12/11 01:10:24;;;;;;;22.97;17.57;;;;;;;5.13;55.69;98168.72;6987830;28;20226;-83
2022/12/11 01:13:46;;;;;;;28.10;17.87;;;;;;;5.29;55.23;98173.81;6988068;28;20473;-83
2022/12/11 01:17:08;;;;;;;24.97;16.43;;;;;;;5.16;54.90;98152.28;6986246;28;20695;-83
2022/12/11 01:20:30;;;;;;;23.67;17.27;;;;;;;5.32;55.21;98189.50;6988458;28;20243;-82
2022/12/11 01:23:52;;;;;;;25.37;18.40;;;;;;;5.12;55.19;98180.41;6989138;28;20219;-82
2022/12/11 01:39:46;;;;;;;24.53;15.83;;;;;;;5.29;54.68;98185.34;6936047;28;20226;-84
2022/12/11 01:52:34;;;;;;;21.17;15.73;;;;;;;5.52;53.87;98190.56;6978246;28;20210;-84
2022/12/11 01:56:32;;;;;;;20.13;14.00;;;;;;;4.87;54.05;98192.38;6959922;28;20233;-82
2022/12/11 02:04:26;;;;;;;;;;;;;;;;;;;;;
2022/12/11 02:12:33;;;;;;;20.57;14.57;;;;;;;5.42;54.26;98182.03;6968137;28;20267;-83
2022/12/11 02:15:59;;;;;;;21.60;14.67;;;;;;;5.29;53.35;98125.72;6892738;28;20323;-82
2022/12/11 02:19:32;;;;;;;23.40;15.97;;;;;;;5.20;54.20;98191.81;6993863;28;20235;-83
2022/12/11 02:23:12;;;;;;;22.50;16.00;;;;;;;5.40;53.80;98206.25;6994142;28;20235;-82
2022/12/11 02:26:50;;;;;;;20.53;14.80;;;;;;;5.82;52.75;98192.16;6993642;28;20291;-82
2022/12/11 02:30:15;;;;;;;21.10;14.70;;;;;;;5.84;52.29;98204.31;6994196;28;20283;-83
2022/12/11 02:34:17;;;;;;;20.20;14.53;;;;;;;5.95;52.24;98201.13;6993584;28;20656;-83
2022/12/11 02:58:38;;;;;;;21.37;14.70;;;;;;;5.36;53.72;98164.06;6877665;28;20325;-83
2022/12/11 03:23:00;;;;;;;17.53;13.10;;;;;;;5.37;53.67;98181.75;6748565;29;20227;-82
2022/12/11 03:31:07;;;;;;;18.10;13.77;;;;;;;5.32;52.74;98179.63;6800638;29;20230;-82
2022/12/11 03:35:00;;;;;;;20.13;14.50;;;;;;;5.63;53.01;98184.72;6797601;29;20211;-82
2022/12/11 03:38:28;;;;;;;24.53;16.57;;;;;;;5.32;54.29;98198.34;6796332;29;20251;-84
2022/12/11 03:41:51;;;;;;;19.40;14.50;;;;;;;5.66;53.05;98195.84;6833088;28;20215;-85
2022/12/11 03:45:14;;;;;;;28.23;15.20;;;;;;;5.12;53.81;98181.22;6905999;28;20221;-83
2022/12/11 03:48:37;;;;;;;20.63;14.93;;;;;;;5.30;53.79;98195.03;6906115;28;20775;-84
2022/12/11 03:52:01;;;;;;;20.30;14.80;;;;;;;5.37;54.00;98200.47;6906182;28;20232;-83
2022/12/11 03:55:53;;;;;;;17.83;12.53;;;;;;;5.80;52.27;98200.38;6905393;28;20690;-84
2022/12/11 03:59:40;;;;;;;;;;;;;;;;;;;;;
2022/12/11 04:03:31;;;;;;;20.97;15.17;;;;;;;5.73;52.98;98185.25;6923636;28;20203;-82
2022/12/11 04:11:49;;;;;;;19.53;14.47;;;;;;;5.85;52.22;98176.53;6877616;28;20214;-85
2022/12/11 04:15:34;;;;;;;18.60;14.23;;;;;;;5.95;51.93;98169.03;6904364;28;20580;-89
2022/12/11 04:26:21;;;;;;;16.70;13.27;;;;;;;6.03;51.15;98144.84;6952996;28;20210;-82
2022/12/11 04:29:44;;;;;;;17.03;13.00;;;;;;;5.64;52.21;98117.69;6983707;28;20271;-82
2022/12/11 04:33:06;;;;;;;21.20;13.93;;;;;;;5.64;52.21;98131.06;6986385;28;20234;-82
2022/12/11 04:36:28;;;;;;;16.93;12.93;;;;;;;5.55;52.50;98126.84;6986221;28;20290;-85
2022/12/11 04:39:49;;;;;;;21.33;14.60;;;;;;;4.97;54.52;98134.19;6985860;28;20729;-82
2022/12/11 04:43:11;;;;;;;19.53;13.87;;;;;;;5.06;55.18;98144.56;6984652;28;20203;-82
2022/12/11 04:46:47;;;;;;;21.30;14.93;;;;;;;4.59;55.71;98136.13;6983118;28;20262;-82
2022/12/11 04:50:10;;;;;;;18.67;13.60;;;;;;;3.85;57.61;98130.03;6984190;28;20287;-83
2022/12/11 04:53:32;;;;;;;18.70;14.47;;;;;;;4.46;56.62;98137.78;6985299;28;20198;-83
2022/12/11 04:56:59;;;;;;;23.03;14.63;;;;;;;4.82;55.57;98141.38;6984227;28;20238;-82
2022/12/11 05:00:24;;;;;;;19.47;14.97;;;;;;;4.25;56.23;98151.03;6985341;28;20923;-83
2022/12/11 05:03:47;;;;;;;20.57;14.43;;;;;;;4.32;56.21;98152.75;6984440;28;20232;-82
2022/12/11 05:07:10;;;;;;;21.77;15.43;;;;;;;4.15;56.74;98155.78;6986678;28;20772;-83
2022/12/11 05:10:37;;;;;;;22.90;15.13;;;;;;;3.49;57.16;98127.13;6988237;28;20226;-83
2022/12/11 05:13:59;;;;;;;22.30;15.43;;;;;;;4.29;56.86;98154.97;6987820;28;20255;-83
2022/12/11 05:17:22;;;;;;;23.50;16.77;;;;;;;4.88;55.25;98159.31;6987959;28;20236;-83
2022/12/11 05:24:21;;;;;;;23.10;16.50;;;;;;;5.15;55.22;98161.31;6985963;28;20226;-83
2022/12/11 05:27:43;;;;;;;25.23;16.80;;;;;;;5.57;53.59;98158.75;6987126;28;20223;-83
2022/12/11 05:34:45;;;;;;;23.23;16.90;;;;;;;5.04;54.68;98156.47;6983287;28;20212;-83
2022/12/11 05:38:15;;;;;;;21.03;15.07;;;;;;;5.71;52.77;98137.28;6987673;28;20238;-83
2022/12/11 05:41:36;;;;;;;21.93;16.03;;;;;;;4.64;53.24;98069.69;6986913;28;20561;-82
2022/12/11 05:45:01;;;;;;;23.63;16.13;;;;;;;4.64;55.47;98159.59;6985914;28;20203;-83
2022/12/11 05:48:24;;;;;;;23.13;17.30;;;;;;;4.92;55.52;98147.25;6986503;28;20218;-82
2022/12/11 05:51:52;;;;;;;24.57;17.30;;;;;;;4.73;56.07;98147.84;6985924;28;20229;-83
2022/12/11 05:55:24;;;;;;;28.00;18.07;;;;;;;4.74;55.48;98131.63;6987018;28;20575;-82
2022/12/11 05:58:47;;;;;;;24.87;17.90;;;;;;;5.23;55.03;98132.66;6986959;28;20244;-82
2022/12/11 06:02:09;;;;;;;23.50;17.20;;;;;;;5.35;54.64;98138.31;6985716;28;20218;-82
2022/12/11 06:05:30;;;;;;;23.30;17.00;;;;;;;4.69;56.09;98106.50;6985570;28;20207;-82
2022/12/11 06:08:53;;;;;;;25.80;18.50;;;;;;;4.77;56.91;98147.28;6987158;28;20223;-83
2022/12/11 06:12:18;;;;;;;26.67;17.87;;;;;;;4.83;56.38;98143.84;6987474;28;20208;-83
2022/12/11 06:15:52;;;;;;;25.10;16.57;;;;;;;5.35;55.28;98139.16;6987315;28;20219;-82
2022/12/11 06:19:23;;;;;;;24.23;17.20;;;;;;;5.26;54.46;98136.81;6986783;28;20226;-84
2022/12/11 06:22:53;;;;;;;37.97;24.07;;;;;;;5.42;54.58;98149.94;6978813;28;20218;-82
2022/12/11 06:26:20;;;;;;;19.63;15.07;;;;;;;5.45;53.70;98120.16;6985848;28;20207;-81
2022/12/11 06:29:46;;;;;;;20.97;14.20;;;;;;;5.27;54.22;98115.25;6984026;28;20281;-82
2022/12/11 06:33:08;;;;;;;24.00;16.63;;;;;;;5.08;53.54;98056.25;6982587;28;20187;-81
2022/12/11 06:36:29;;;;;;;24.23;16.37;;;;;;;5.23;53.99;98091.75;6979667;28;20245;-82
2022/12/11 06:39:51;;;;;;;22.73;15.90;;;;;;;5.21;53.74;98099.97;6978885;28;20668;-82
2022/12/11 06:43:12;;;;;;;25.90;16.90;;;;;;;4.78;55.43;98116.06;6979305;28;20226;-81
2022/12/11 06:46:35;;;;;;;27.20;17.70;;;;;;;4.44;56.17;98095.28;6982661;28;20226;-82
2022/12/11 06:49:57;;;;;;;28.40;18.43;;;;;;;4.50;56.93;98110.56;6985783;28;20727;-81
2022/12/11 06:53:19;;;;;;;27.80;18.23;;;;;;;4.88;55.96;98120.09;6985761;28;20218;-82
2022/12/11 06:56:40;;;;;;;24.67;17.23;;;;;;;4.63;55.78;98108.06;6983463;28;20222;-82
2022/12/11 07:00:02;;;;;;;21.97;15.43;;;;;;;4.54;56.07;98117.16;6984012;28;20261;-82
2022/12/11 07:03:25;;;;;;;25.57;17.57;;;;;;;4.46;56.81;98121.75;6984284;28;20198;-82
2022/12/11 07:06:48;;;;;;;25.67;17.90;;;;;;;4.57;56.03;98123.97;6980626;28;20206;-79
2022/12/11 07:10:12;;;;;;;23.23;16.57;;;;;;;4.88;55.89;98121.94;6980524;28;20230;-84
2022/12/11 07:22:33;;;;;;;21.07;16.17;;;;;;;4.94;55.27;98150.56;6858787;29;20194;-87
2022/12/11 07:26:03;;;;;;;23.43;16.50;;;;;;;4.54;56.45;98141.19;6834593;29;20219;-84
2022/12/11 07:29:30;;;;;;;20.80;14.97;;;;;;;5.13;55.11;98121.44;6848712;29;20238;-82
2022/12/11 07:32:52;;;;;;;21.37;14.63;;;;;;;5.42;53.89;98129.38;6843623;29;20726;-82
2022/12/11 07:36:15;;;;;;;20.80;14.17;;;;;;;5.49;53.21;98135.63;6836477;29;20286;-80
2022/12/11 07:39:36;;;;;;;22.40;14.50;;;;;;;4.84;53.82;98145.50;6840754;29;20283;-80
2022/12/11 07:43:02;;;;;;;22.97;16.07;;;;;;;4.84;55.23;98153.53;6840395;29;20204;-79
2022/12/11 07:46:26;;;;;;;22.37;16.63;;;;;;;5.47;53.95;98151.03;6930612;28;20665;-80
2022/12/11 07:49:48;;;;;;;24.60;17.30;;;;;;;5.10;54.60;98161.06;6951411;28;20237;-80
2022/12/11 07:53:09;;;;;;;26.00;18.33;;;;;;;4.99;55.80;98162.38;6949286;28;20223;-77
2022/12/11 07:56:33;;;;;;;29.97;19.47;;;;;;;4.94;56.05;98148.72;6949901;28;20710;-77
2022/12/11 07:59:56;;;;;;;27.03;18.27;;;;;;;5.33;55.62;98148.38;6949306;28;20237;-77
2022/12/11 08:03:18;;;;;;;22.70;17.00;;;;;;;5.72;54.22;98152.31;6951547;28;20254;-78
2022/12/11 08:06:40;;;;;;;22.43;16.30;;;;;;;5.62;54.12;98127.75;6976299;28;20296;-78
2022/12/11 08:10:01;;;;;;;27.47;19.90;;;;;;;5.61;53.57;98150.13;6976845;28;20691;-78
2022/12/11 08:13:23;;;;;;;25.50;18.03;;;;;;;5.38;54.08;98144.16;6976714;28;20234;-78
2022/12/11 08:16:46;;;;;;;23.70;17.23;;;;;;;5.25;54.46;98145.84;6974903;28;20363;-79
2022/12/11 08:20:08;;;;;;;25.77;18.23;;;;;;;5.25;56.37;98149.31;6976034;28;20254;-78
2022/12/11 08:23:30;;;;;;;24.83;17.33;;;;;;;5.78;54.77;98150.75;6975817;28;20603;-77
2022/12/11 08:26:51;;;;;;;25.73;18.63;;;;;;;6.02;53.63;98131.66;6975432;28;20213;-78
2022/12/11 08:30:13;;;;;;;23.57;17.53;;;;;;;5.93;52.72;98147.00;6975646;28;20815;-78
2022/12/11 08:33:37;;;;;;;24.43;17.93;;;;;;;5.64;53.78;98151.59;6975887;28;20281;-78
2022/12/11 08:36:58;;;;;;;26.83;18.60;;;;;;;5.91;53.17;98150.91;6974671;28;20230;-78
2022/12/11 08:40:20;;;;;;;24.33;17.73;;;;;;;5.36;53.90;98138.16;6975722;28;20737;-78
2022/12/11 08:43:42;;;;;;;25.97;18.57;;;;;;;5.36;55.01;98156.06;6975998;28;20210;-79
2022/12/11 08:47:04;;;;;;;41.57;29.70;;;;;;;5.38;54.41;98146.84;6975231;28;20872;-78
2022/12/11 08:50:27;;;;;;;44.23;33.47;;;;;;;5.18;54.60;98167.13;6975438;28;20234;-78
2022/12/11 08:53:48;;;;;;;54.80;39.60;;;;;;;5.10;55.19;98161.91;6975582;28;20238;-78
2022/12/11 08:57:10;;;;;;;52.97;34.90;;;;;;;5.27;54.37;98160.69;6975344;28;20704;-78
2022/12/11 09:00:31;;;;;;;83.00;45.50;;;;;;;5.10;55.22;98140.53;6975367;28;20313;-79
2022/12/11 09:03:54;;;;;;;33.97;22.97;;;;;;;4.80;56.16;98143.41;6975540;28;20199;-78
2022/12/11 09:07:17;;;;;;;35.83;23.67;;;;;;;4.79;57.06;98110.53;6975809;28;20234;-78
2022/12/11 09:10:39;;;;;;;32.77;22.77;;;;;;;5.30;55.68;98119.38;6975453;28;20289;-78
2022/12/11 09:14:01;;;;;;;34.60;22.87;;;;;;;5.36;56.37;98145.34;6975787;28;20279;-78
2022/12/11 09:17:22;;;;;;;33.87;22.00;;;;;;;5.42;55.49;98137.41;6974824;28;20368;-78
2022/12/11 09:20:44;;;;;;;30.40;22.07;;;;;;;5.33;55.93;98141.22;6975572;28;20636;-79
2022/12/11 09:24:09;;;;;;;33.20;22.63;;;;;;;5.19;56.28;98142.06;6977112;28;20244;-79
2022/12/11 09:27:30;;;;;;;33.57;22.23;;;;;;;5.75;55.48;98129.72;6976628;28;20630;-79
2022/12/11 09:30:52;;;;;;;29.93;21.00;;;;;;;5.85;54.02;98114.22;6977095;28;20768;-78
2022/12/11 09:34:14;;;;;;;28.23;19.97;;;;;;;5.79;54.12;98114.94;6975895;28;20227;-78
2022/12/11 09:37:35;;;;;;;31.93;21.53;;;;;;;5.41;55.08;98142.91;6974948;28;20384;-77
2022/12/11 09:40:58;;;;;;;31.73;21.63;;;;;;;4.89;57.02;98137.78;6975283;28;20239;-78
2022/12/11 09:44:27;;;;;;;38.07;22.70;;;;;;;5.41;56.24;98138.41;6975271;28;20248;-77
2022/12/11 09:47:50;;;;;;;30.43;20.77;;;;;;;5.27;56.64;98141.13;6974578;28;20763;-78
2022/12/11 09:51:15;;;;;;;33.23;21.03;;;;;;;5.18;55.71;98113.69;6978961;28;20704;-78
2022/12/11 09:54:37;;;;;;;27.67;19.80;;;;;;;5.39;56.09;98139.63;6975124;28;20223;-78
2022/12/11 09:58:04;;;;;;;28.80;19.77;;;;;;;6.12;54.56;98129.44;6973949;28;20318;-78
2022/12/11 10:01:33;;;;;;;33.53;21.87;;;;;;;5.97;54.12;98126.88;6974525;28;20427;-77
2022/12/11 10:05:03;;;;;;;31.40;23.30;;;;;;;6.18;55.24;98120.69;6974885;28;20281;-77
2022/12/11 10:08:30;;;;;;;29.57;20.63;;;;;;;6.15;55.18;98123.72;6974723;28;20226;-78
2022/12/11 10:12:01;;;;;;;27.10;19.10;;;;;;;6.45;54.19;98123.34;6974670;28;20192;-78
2022/12/11 10:15:31;;;;;;;32.90;20.70;;;;;;;5.63;53.64;98102.66;6974184;28;20190;-78
2022/12/11 10:18:53;;;;;;;27.07;19.87;;;;;;;6.41;52.83;98114.03;6974043;28;20322;-78
2022/12/11 10:22:18;;;;;;;31.13;20.27;;;;;;;6.24;53.92;98103.84;6977335;28;20276;-78
2022/12/11 10:25:43;;;;;;;27.50;20.03;;;;;;;6.09;53.75;98106.63;6979310;28;20187;-78
2022/12/11 10:29:06;;;;;;;28.20;20.40;;;;;;;6.15;53.72;98094.28;6979278;28;20224;-78
2022/12/11 10:32:37;;;;;;;27.43;18.37;;;;;;;6.27;53.81;98106.97;6979369;28;20679;-78
2022/12/11 10:35:58;;;;;;;26.80;19.40;;;;;;;6.15;53.19;98089.78;6978956;28;20639;-78
2022/12/11 10:39:22;;;;;;;25.87;18.00;;;;;;;6.31;52.63;98083.31;6979210;28;20319;-78
2022/12/11 10:42:52;;;;;;;23.47;17.20;;;;;;;6.64;52.50;98084.31;6979247;28;20287;-77
2022/12/11 10:46:16;;;;;;;25.03;16.70;;;;;;;6.78;51.68;98051.22;6976831;28;20209;-78
2022/12/11 10:49:44;;;;;;;23.50;16.50;;;;;;;5.60;51.63;98064.78;6977286;28;20375;-77
2022/12/11 10:53:06;;;;;;;24.30;16.93;;;;;;;5.55;53.54;98075.22;6979528;28;20193;-77
2022/12/11 10:56:28;;;;;;;24.03;16.57;;;;;;;6.28;52.33;98071.13;6978366;28;20299;-78
2022/12/11 10:59:50;;;;;;;22.30;15.77;;;;;;;6.85;51.20;98073.50;6979430;28;20317;-78
2022/12/11 11:03:21;;;;;;;23.10;16.80;;;;;;;6.27;51.42;98076.69;6979438;28;20203;-78
2022/12/11 11:06:44;;;;;;;25.70;17.90;;;;;;;6.75;52.24;98076.56;6978665;28;20660;-77
2022/12/11 11:10:14;;;;;;;20.57;15.13;;;;;;;6.24;52.19;98059.16;6978824;28;20697;-78
2022/12/11 11:13:36;;;;;;;25.33;16.90;;;;;;;6.75;52.19;98065.84;6978404;28;20198;-77
2022/12/11 11:17:01;;;;;;;22.43;15.47;;;;;;;5.89;52.44;98028.03;6980450;28;20785;-78
2022/12/11 11:20:26;;;;;;;22.47;15.60;;;;;;;5.98;51.65;98040.25;6980506;28;20266;-78
2022/12/11 11:23:49;;;;;;;18.27;13.70;;;;;;;5.44;52.89;98051.69;6981875;28;20188;-78
2022/12/11 11:27:19;;;;;;;21.07;16.20;;;;;;;5.82;53.54;98061.94;6979720;28;20273;-78
2022/12/11 11:30:41;;;;;;;21.70;16.53;;;;;;;5.59;53.74;98047.06;6980095;28;20237;-78
2022/12/11 11:34:06;;;;;;;21.07;15.90;;;;;;;6.76;52.22;98042.53;6980851;28;20285;-78
2022/12/11 11:37:31;;;;;;;24.77;16.03;;;;;;;6.85;50.94;98036.00;6978550;28;20231;-79
2022/12/11 11:41:00;;;;;;;26.27;16.60;;;;;;;6.83;51.63;98041.56;6978376;28;20285;-77
2022/12/11 11:44:28;;;;;;;24.83;16.10;;;;;;;6.63;52.50;97981.72;6980312;28;20240;-79
2022/12/11 11:47:57;;;;;;;23.77;17.20;;;;;;;6.61;52.20;98039.19;6984275;28;20235;-78
2022/12/11 11:51:23;;;;;;;22.03;15.30;;;;;;;6.09;52.16;98046.91;6983834;28;20238;-79
2022/12/11 11:54:50;;;;;;;25.50;15.33;;;;;;;6.47;52.39;98037.44;6982895;28;20692;-79
2022/12/11 11:58:16;;;;;;;18.00;14.20;;;;;;;7.07;51.20;98032.97;6980284;28;20315;-78
2022/12/11 12:01:38;;;;;;;19.87;14.63;;;;;;;6.96;51.31;98035.44;6978378;28;20231;-78
2022/12/11 12:04:59;;;;;;;19.33;13.80;;;;;;;7.43;49.08;98028.09;6976443;28;20235;-76
2022/12/11 12:08:30;;;;;;;19.43;13.87;;;;;;;6.93;50.30;98031.28;6976656;28;20305;-77
2022/12/11 12:11:56;;;;;;;17.77;13.77;;;;;;;6.69;50.69;98034.50;6977852;28;20336;-77
2022/12/11 12:15:25;;;;;;;23.50;14.43;;;;;;;6.77;50.27;98026.28;6976616;28;20214;-76
2022/12/11 12:18:52;;;;;;;18.77;14.40;;;;;;;6.49;51.66;98027.41;6976860;28;20233;-77
2022/12/11 12:22:22;;;;;;;20.40;15.10;;;;;;;6.65;51.33;98021.69;6976653;28;20284;-76
2022/12/11 12:25:46;;;;;;;24.33;15.20;;;;;;;6.86;50.99;98033.13;6974783;28;20224;-76
2022/12/11 12:29:17;;;;;;;21.87;16.33;;;;;;;6.03;51.98;98020.94;6976866;28;20253;-76
2022/12/11 12:32:48;;;;;;;23.57;16.07;;;;;;;6.47;52.01;98018.72;6976434;28;20287;-76
2022/12/11 12:36:17;;;;;;;21.43;15.07;;;;;;;6.55;51.18;98008.66;6975507;28;20294;-81
2022/12/11 12:39:44;;;;;;;24.40;17.53;;;;;;;6.25;51.70;98004.59;6976082;28;20230;-78
2022/12/11 12:43:17;;;;;;;18.90;14.30;;;;;;;5.14;53.35;98002.84;6975135;28;20296;-78
2022/12/11 12:46:57;;;;;;;26.03;16.53;;;;;;;5.68;53.14;98003.16;6975580;28;20226;-77
2022/12/11 12:50:21;;;;;;;25.23;15.57;;;;;;;6.17;52.02;97994.06;6972557;28;20644;-78
2022/12/11 12:53:47;;;;;;;37.47;22.83;;;;;;;5.76;51.96;98008.34;6975512;28;20217;-78
2022/12/11 12:57:08;;;;;;;89.43;38.83;;;;;;;6.05;51.88;97997.47;6975071;28;20206;-80
2022/12/11 13:00:32;;;;;;;27.47;18.60;;;;;;;5.84;52.03;97985.00;6976619;28;20375;-76
2022/12/11 13:03:56;;;;;;;26.60;17.93;;;;;;;5.62;53.22;97971.84;6975225;28;20210;-78
2022/12/11 13:07:22;;;;;;;21.80;15.20;;;;;;;5.54;52.91;98004.88;6973104;28;20616;-79
2022/12/11 13:10:43;;;;;;;23.97;15.40;;;;;;;5.22;52.86;98005.44;6973483;28;20206;-79
2022/12/11 13:14:07;;;;;;;20.73;14.73;;;;;;;5.28;53.25;98007.34;6964063;28;20286;-79
2022/12/11 13:17:37;;;;;;;22.07;15.23;;;;;;;5.68;52.59;98004.00;6970352;28;20272;-79
2022/12/11 13:20:59;;;;;;;24.03;16.60;;;;;;;5.78;52.90;97999.09;6971966;28;20203;-80
2022/12/11 13:24:26;;;;;;;25.20;16.47;;;;;;;5.82;52.94;98013.78;6975002;28;20200;-79
2022/12/11 13:27:49;;;;;;;27.00;17.03;;;;;;;6.13;52.22;97991.97;6976984;28;20713;-80
2022/12/11 13:31:43;;;;;;;29.33;18.13;;;;;;;5.84;51.94;97998.34;6977726;28;20206;-79
2022/12/11 13:35:06;;;;;;;26.57;16.93;;;;;;;5.93;51.89;98010.56;6919637;28;20221;-80
2022/12/11 13:38:28;;;;;;;23.93;16.33;;;;;;;5.75;51.59;98006.69;6928406;28;20280;-80
2022/12/11 13:41:53;;;;;;;24.20;16.60;;;;;;;5.60;52.27;98019.34;6978762;28;20216;-79
2022/12/11 13:45:22;;;;;;;22.73;15.17;;;;;;;5.74;51.37;98013.06;6978849;28;20199;-80
2022/12/11 13:48:46;;;;;;;25.50;16.63;;;;;;;4.91;53.23;97994.22;6966287;28;20232;-79
2022/12/11 13:52:17;;;;;;;28.50;19.10;;;;;;;5.38;53.07;97989.13;6956721;28;20292;-79
2022/12/11 13:55:38;;;;;;;32.37;19.83;;;;;;;6.04;52.42;98022.59;6973541;28;20196;-80
2022/12/11 13:59:01;;;;;;;27.37;17.93;;;;;;;5.81;51.80;98019.31;6979650;28;20318;-79
2022/12/11 14:02:26;;;;;;;50.23;27.00;;;;;;;5.61;52.38;98026.34;6978506;28;20245;-80
2022/12/11 14:05:47;;;;;;;29.77;19.97;;;;;;;5.28;52.90;98007.34;6979729;28;20226;-80
2022/12/11 14:09:09;;;;;;;26.47;17.93;;;;;;;5.17;52.86;98018.53;6981953;28;20258;-80
2022/12/11 14:12:31;;;;;;;27.70;17.57;;;;;;;4.62;54.30;98022.81;6982736;28;20230;-80
2022/12/11 14:15:54;;;;;;;30.03;18.93;;;;;;;5.04;53.89;98021.06;6983707;28;20255;-80
2022/12/11 14:19:18;;;;;;;28.90;17.97;;;;;;;5.12;53.11;98026.28;6973846;28;20264;-80
2022/12/11 14:22:40;;;;;;;33.47;20.90;;;;;;;5.15;52.66;98014.38;6955202;28;20304;-81
2022/12/11 14:26:03;;;;;;;24.70;17.20;;;;;;;4.98;52.40;98007.63;6953756;28;20204;-80
2022/12/11 14:29:30;;;;;;;24.77;16.37;;;;;;;5.19;52.12;98029.03;6955067;28;20321;-80
2022/12/11 14:32:55;;;;;;;25.70;16.40;;;;;;;4.93;52.32;98034.91;6955000;28;20576;-79
2022/12/11 14:36:17;;;;;;;23.97;16.13;;;;;;;5.28;52.34;98010.00;6952607;28;20280;-78
2022/12/11 14:39:43;;;;;;;23.43;14.33;;;;;;;5.33;51.50;98044.16;6951510;28;20611;-78
2022/12/11 14:43:09;;;;;;;26.20;16.03;;;;;;;5.20;51.92;98036.03;6951553;28;20207;-78
2022/12/11 14:46:36;;;;;;;26.87;16.43;;;;;;;5.38;51.84;98044.44;6950626;28;20549;-78
2022/12/11 14:50:03;;;;;;;26.10;15.27;;;;;;;4.78;52.61;98043.97;6963390;28;20227;-78
2022/12/11 14:53:28;;;;;;;21.80;15.60;;;;;;;5.19;52.67;98047.72;6971241;28;20199;-78
2022/12/11 14:56:49;;;;;;;26.73;17.67;;;;;;;4.93;53.03;98000.19;6953766;28;20214;-81
2022/12/11 15:00:22;;;;;;;30.13;19.27;;;;;;;5.54;52.60;98049.53;6952897;28;20693;-77
2022/12/11 15:03:43;;;;;;;28.60;18.80;;;;;;;5.59;51.89;98060.44;6951489;28;20279;-84
2022/12/11 15:07:20;;;;;;;32.27;20.33;;;;;;;5.42;51.98;98061.75;6951868;28;20238;-80
2022/12/11 15:10:42;;;;;;;33.07;19.40;;;;;;;5.63;52.16;98054.53;6953479;28;20313;-78
2022/12/11 15:14:04;;;;;;;27.90;18.90;;;;;;;5.67;51.97;98046.97;6956112;28;20203;-80
2022/12/11 15:17:26;;;;;;;28.53;18.27;;;;;;;5.37;52.50;98056.94;6953312;28;20257;-79
2022/12/11 15:20:50;;;;;;;32.53;19.90;;;;;;;5.23;52.80;98052.50;6967161;28;20232;-78
2022/12/11 15:24:23;;;;;;;32.13;19.37;;;;;;;5.38;53.05;98063.97;6962430;28;20360;-81
2022/12/11 15:27:45;;;;;;;33.33;21.63;;;;;;;5.52;52.34;98065.75;6959238;28;20226;-81
2022/12/11 15:31:21;;;;;;;30.87;19.97;;;;;;;5.06;52.72;98064.44;6980799;28;20208;-81
2022/12/11 15:34:44;;;;;;;32.17;19.50;;;;;;;5.14;53.28;98066.97;6981344;28;20227;-82
2022/12/11 15:38:06;;;;;;;31.27;19.13;;;;;;;5.32;52.49;98058.56;6967294;28;20695;-81
2022/12/11 15:41:32;;;;;;;33.00;17.80;;;;;;;5.47;52.51;98060.13;6970413;28;20232;-80
2022/12/11 15:44:55;;;;;;;30.50;19.00;;;;;;;5.74;52.13;98063.88;6950163;28;20576;-79
2022/12/11 15:48:17;;;;;;;23.13;16.30;;;;;;;5.72;51.23;98063.25;6966229;28;20308;-78
2022/12/11 15:51:39;;;;;;;28.17;17.17;;;;;;;5.28;51.90;98049.25;6963601;28;20219;-79
2022/12/11 15:55:00;;;;;;;26.73;16.97;;;;;;;5.28;51.83;98075.97;6961148;28;20293;-79
2022/12/11 15:58:26;;;;;;;28.13;16.37;;;;;;;5.04;52.81;98069.16;6974447;28;20333;-79
2022/12/11 16:01:47;;;;;;;26.63;16.43;;;;;;;5.34;51.98;98078.72;6952510;28;20192;-79
2022/12/11 16:05:09;;;;;;;30.87;16.87;;;;;;;5.26;52.11;98067.31;6949887;28;20235;-82
2022/12/11 16:08:30;;;;;;;27.23;17.13;;;;;;;5.30;52.04;98040.03;6972743;28;20713;-80
2022/12/11 16:11:52;;;;;;;32.83;18.70;;;;;;;5.14;52.43;98076.84;6970675;28;20203;-79
2022/12/11 16:15:15;;;;;;;27.60;17.47;;;;;;;5.20;52.07;98068.91;6965603;28;20750;-78
2022/12/11 16:18:36;;;;;;;26.90;17.03;;;;;;;5.53;51.35;98082.59;6977037;28;20709;-81
2022/12/11 16:21:58;;;;;;;26.73;16.50;;;;;;;5.81;51.09;98095.06;6978312;28;20290;-81
2022/12/11 16:25:19;;;;;;;28.07;17.80;;;;;;;4.92;51.19;98003.88;6976923;28;20310;-81
2022/12/11 16:28:42;;;;;;;30.10;17.87;;;;;;;5.18;52.06;98084.31;6977541;28;20361;-80
2022/12/11 16:32:12;;;;;;;25.90;17.60;;;;;;;5.41;51.62;98066.25;6974474;28;20205;-85
2022/12/11 16:35:34;;;;;;;30.67;17.90;;;;;;;5.57;51.83;98044.63;6974708;28;20199;-81
2022/12/11 16:38:55;;;;;;;29.73;17.67;;;;;;;5.92;51.65;98074.97;6980422;28;20257;-81
2022/12/11 16:42:20;;;;;;;26.37;17.40;;;;;;;6.01;50.54;98053.22;6981861;28;20217;-84
2022/12/11 16:45:43;;;;;;;28.83;17.77;;;;;;;5.85;51.04;98079.44;6984277;28;20203;-86
2022/12/11 16:49:06;;;;;;;29.47;17.17;;;;;;;5.39;51.37;98086.16;6987161;28;20236;-86
2022/12/11 16:52:28;;;;;;;32.27;19.67;;;;;;;5.51;51.63;98074.78;6980601;28;20225;-81
2022/12/11 16:55:49;;;;;;;34.57;21.00;;;;;;;5.67;52.26;98079.84;6981862;28;20201;-81
2022/12/11 16:59:11;;;;;;;35.50;20.87;;;;;;;5.48;52.59;98077.03;6988043;28;20665;-79
2022/12/11 17:02:33;;;;;;;35.23;21.87;;;;;;;5.12;53.45;98041.50;6980157;28;20220;-82
2022/12/11 17:05:56;;;;;;;38.63;23.80;;;;;;;5.50;53.33;98088.34;6977546;28;20209;-78
2022/12/11 17:09:18;;;;;;;35.90;21.67;;;;;;;5.51;53.67;98081.97;6975566;28;20223;-78
2022/12/11 17:12:39;;;;;;;48.43;26.63;;;;;;;5.41;53.72;98076.94;6975386;28;20213;-78
2022/12/11 17:16:04;;;;;;;48.10;25.93;;;;;;;5.21;54.32;98072.41;6973939;28;20353;-78
2022/12/11 17:19:25;;;;;;;69.17;34.83;;;;;;;5.30;54.26;98072.09;6974372;28;20761;-79
2022/12/11 17:22:48;;;;;;;87.40;40.43;;;;;;;5.41;53.75;98058.22;6975929;28;20672;-79
2022/12/11 17:26:10;;;;;;;50.13;29.17;;;;;;;5.34;53.76;98056.50;6974157;28;20230;-79
2022/12/11 17:29:31;;;;;;;81.37;37.97;;;;;;;5.21;54.74;98067.91;6958390;28;20829;-79
2022/12/11 17:32:53;;;;;;;81.07;50.97;;;;;;;5.43;54.17;98069.53;6947757;28;20215;-79
2022/12/11 17:36:16;;;;;;;39.77;24.77;;;;;;;5.30;53.90;98056.06;6951577;28;20206;-79
2022/12/11 17:39:39;;;;;;;40.93;24.30;;;;;;;5.39;53.86;98072.81;6951859;28;20726;-80
2022/12/11 17:43:05;;;;;;;42.97;29.40;;;;;;;5.25;54.30;98053.13;6951488;28;20679;-80
2022/12/11 17:46:26;;;;;;;41.13;25.03;;;;;;;5.22;53.84;98055.34;6968934;28;20213;-80
2022/12/11 17:49:48;;;;;;;49.67;28.03;;;;;;;4.96;53.73;98013.16;6981659;28;20312;-84
2022/12/11 17:53:11;;;;;;;51.40;29.13;;;;;;;5.17;53.80;98063.94;6976421;28;20190;-82
2022/12/11 17:56:35;;;;;;;54.30;29.53;;;;;;;5.26;53.60;98054.78;6964855;28;20217;-82
2022/12/11 17:59:56;;;;;;;48.00;26.10;;;;;;;4.96;53.92;98049.75;6958363;28;20231;-80
2022/12/11 18:03:18;;;;;;;45.97;25.87;;;;;;;4.80;54.42;98079.31;6958101;28;20245;-81
2022/12/11 18:06:40;;;;;;;42.87;25.47;;;;;;;5.15;54.31;98068.66;6954678;28;20215;-81
2022/12/11 18:10:01;;;;;;;45.77;27.33;;;;;;;5.18;53.57;98065.59;6959679;28;20226;-81
2022/12/11 18:13:25;;;;;;;39.50;24.03;;;;;;;5.41;53.92;98076.94;6957071;28;20400;-81
2022/12/11 18:16:47;;;;;;;42.53;24.63;;;;;;;5.67;52.84;98053.13;6958344;28;20298;-81